Time;durP1;ratioP1;P1;durP2;ratioP2;P2;SDS_P1;SDS_P2;PMS_P1;PMS_P2;Temp;Humidity;BMP_temperature;BMP_pressure;BME280_temperature;BME280_humidity;BME280_pressure;Samples;Min_cycle;Max_cycle;Signal;HPM_P1;HPM_P2
2023/01/27 00:00:05;;;;;;;;;12.25;9.75;;;;;8.51;61.29;101914.22;5014138;28;45640;-66
2023/01/27 00:02:31;;;;;;;;;18.50;16.50;;;;;8.52;60.92;101920.50;5014000;28;47698;-66
2023/01/27 00:04:57;;;;;;;;;13.75;11.75;;;;;8.51;61.01;101913.31;5013772;28;45514;-66
2023/01/27 00:07:22;;;;;;;;;16.00;12.50;;;;;8.48;60.15;101903.44;5013666;28;45461;-66
2023/01/27 00:09:47;;;;;;;;;40.75;34.00;;;;;8.51;60.59;101905.31;5013913;28;45694;-68
2023/01/27 00:15:05;;;;;;;;;14.75;13.50;;;;;8.48;59.79;101912.34;5015223;28;45451;-67
2023/01/27 00:17:31;;;;;;;;;21.50;13.25;;;;;8.46;59.45;101921.06;5013923;28;45310;-64
2023/01/27 00:19:56;;;;;;;;;15.25;13.25;;;;;8.45;59.69;101913.91;5013714;28;45412;-65
2023/01/27 00:25:05;;;;;;;;;20.75;17.00;;;;;8.38;59.75;101911.69;5008972;28;45506;-65
2023/01/27 00:27:31;;;;;;;;;29.75;21.00;;;;;8.30;59.78;101893.56;5019090;28;45388;-64
2023/01/27 00:29:56;;;;;;;;;22.50;17.75;;;;;8.42;59.85;101919.94;5012707;28;45384;-67
2023/01/27 00:35:06;;;;;;;;;13.50;10.25;;;;;8.40;60.03;101918.06;5013599;28;45316;-64
2023/01/27 00:37:31;;;;;;;;;14.75;13.25;;;;;8.40;60.50;101920.72;5013661;28;45417;-64
2023/01/27 00:39:56;;;;;;;;;14.50;10.25;;;;;8.43;60.58;101921.81;5013698;28;45427;-64
2023/01/27 00:42:22;;;;;;;;;10.00;8.75;;;;;8.38;60.97;101912.63;5013827;28;46401;-65
2023/01/27 00:47:31;;;;;;;;;6.00;5.00;;;;;8.47;60.82;101909.59;5017340;28;45583;-66
2023/01/27 00:49:56;;;;;;;;;4.00;4.00;;;;;8.50;60.27;101907.09;5013917;28;45436;-68
2023/01/27 00:52:22;;;;;;;;;3.75;3.75;;;;;8.52;60.81;101904.50;5013908;28;46008;-66
2023/01/27 00:54:47;;;;;;;;;13.50;13.00;;;;;8.51;60.85;101908.00;5017514;28;45504;-67
2023/01/27 00:57:12;;;;;;;;;6.00;6.00;;;;;8.51;60.08;101905.31;5000331;28;45444;-68
2023/01/27 00:59:38;;;;;;;;;9.25;8.25;;;;;8.53;60.16;101907.25;5017930;28;45439;-67
2023/01/27 01:02:03;;;;;;;;;8.75;7.75;;;;;8.57;60.13;101900.34;5008427;28;46212;-68
2023/01/27 01:04:28;;;;;;;;;6.25;4.50;;;;;8.58;59.39;101907.47;5026036;28;45421;-66
2023/01/27 01:06:53;;;;;;;;;16.75;9.50;;;;;8.51;59.74;101895.59;5017304;28;45491;-66
2023/01/27 01:09:19;;;;;;;;;3.25;3.25;;;;;8.61;59.12;101908.56;5017680;28;45538;-66
2023/01/27 01:11:44;;;;;;;;;12.75;6.25;;;;;8.63;59.63;101909.56;4998688;28;47288;-64
2023/01/27 01:14:10;;;;;;;;;6.25;4.75;;;;;8.62;59.69;101901.50;5016349;28;45398;-66
2023/01/27 01:16:35;;;;;;;;;5.75;4.00;;;;;8.65;58.88;101891.00;5017706;28;45541;-66
2023/01/27 01:19:01;;;;;;;;;3.25;3.25;;;;;8.57;58.80;101893.25;5017027;28;45312;-65
2023/01/27 01:21:26;;;;;;;;;1.50;1.50;;;;;8.57;59.12;101893.25;5016001;28;46189;-64
2023/01/27 01:23:51;;;;;;;;;4.00;2.00;;;;;8.52;59.57;101888.53;5016996;28;45304;-65
2023/01/27 01:26:17;;;;;;;;;2.00;2.00;;;;;8.54;59.26;101902.84;5016935;28;45301;-67
2023/01/27 01:28:44;;;;;;;;;3.75;3.00;;;;;8.47;60.45;101898.94;5017826;28;45526;-64
2023/01/27 01:31:13;;;;;;;;;6.25;2.25;;;;;8.51;60.10;101895.59;5011936;28;48071;-66
2023/01/27 01:33:38;;;;;;;;;4.00;2.75;;;;;8.53;59.65;101895.66;5016567;28;45209;-66
2023/01/27 01:36:10;;;;;;;;;3.50;1.00;;;;;8.53;59.19;101891.28;5020562;28;45537;-66
2023/01/27 01:38:36;;;;;;;;;2.00;2.00;;;;;8.57;59.25;101895.00;5017145;28;45482;-67
2023/01/27 01:41:02;;;;;;;;;4.75;3.75;;;;;8.56;59.76;101899.41;5016484;28;46144;-66
2023/01/27 01:43:27;;;;;;;;;9.50;5.75;;;;;8.58;60.20;101899.47;5016533;28;45562;-66
2023/01/27 01:45:55;;;;;;;;;7.25;7.25;;;;;8.61;59.66;101899.66;5017152;28;45795;-64
2023/01/27 01:48:25;;;;;;;;;5.50;2.50;;;;;8.60;59.00;101889.84;4999065;28;45333;-65
2023/01/27 01:50:59;;;;;;;;;2.50;2.00;;;;;8.56;59.63;101891.41;5029001;28;45527;-66
2023/01/27 01:53:30;;;;;;;;;3.00;3.00;;;;;8.53;59.85;101890.34;4997235;28;45289;-66
2023/01/27 01:56:04;;;;;;;;;4.50;3.00;;;;;8.58;59.06;101891.50;5014189;28;45337;-67
2023/01/27 01:58:31;;;;;;;;;4.50;2.50;;;;;8.58;59.25;101879.13;5026477;28;45311;-66
2023/01/27 02:00:56;;;;;;;;;2.00;2.00;;;;;8.56;59.35;101877.19;5016170;28;45565;-65
2023/01/27 02:03:24;;;;;;;;;3.00;3.00;;;;;8.59;59.49;101891.56;5015819;28;45571;-64
2023/01/27 02:05:53;;;;;;;;;4.00;2.00;;;;;8.44;58.46;101856.16;5015116;28;45399;-66
2023/01/27 02:08:41;;;;;;;;;4.00;3.50;;;;;8.60;59.47;101893.41;5024802;28;45547;-67
2023/01/27 02:11:10;;;;;;;;;6.75;4.50;;;;;8.47;59.01;101853.66;5013958;28;45359;-63
2023/01/27 02:13:36;;;;;;;;;1.00;1.00;;;;;8.64;59.16;101881.16;5016781;28;45623;-66
2023/01/27 02:16:02;;;;;;;;;4.00;2.75;;;;;8.50;58.91;101853.81;5015579;28;45510;-66
2023/01/27 02:18:28;;;;;;;;;1.75;1.25;;;;;8.56;58.35;101874.53;4981230;28;45377;-65
2023/01/27 02:20:54;;;;;;;;;2.75;1.00;;;;;8.43;58.39;101855.25;5024866;28;45997;-66
2023/01/27 02:23:40;;;;;;;;;3.25;2.00;;;;;8.54;59.31;101871.78;5016767;28;45442;-65
2023/01/27 02:26:23;;;;;;;;;4.00;2.00;;;;;8.54;58.82;101871.78;5016016;28;45271;-66
2023/01/27 02:29:03;;;;;;;;;4.00;3.00;;;;;8.45;58.37;101842.00;5020691;28;45756;-68
2023/01/27 02:31:28;;;;;;;;;2.75;2.00;;;;;8.49;58.94;101865.28;5033916;28;45834;-67
2023/01/27 02:34:01;;;;;;;;;2.00;2.00;;;;;8.35;58.45;101845.91;5021540;28;45538;-65
2023/01/27 02:36:31;;;;;;;;;3.00;3.00;;;;;8.48;58.38;101864.38;5015992;28;45399;-64
2023/01/27 02:39:00;;;;;;;;;3.50;2.25;;;;;8.50;59.14;101864.47;5015687;28;45670;-64
2023/01/27 02:41:34;;;;;;;;;3.00;1.75;;;;;8.51;58.73;101863.63;5027182;28;45392;-66
2023/01/27 02:43:59;;;;;;;;;2.00;1.50;;;;;8.41;58.41;101848.88;5014301;28;45391;-65
2023/01/27 02:46:24;;;;;;;;;3.50;2.75;;;;;8.47;57.74;101854.56;5015543;28;45426;-66
2023/01/27 02:48:50;;;;;;;;;2.00;2.00;;;;;8.42;58.83;101858.69;5009680;28;45484;-68
2023/01/27 02:51:16;;;;;;;;;3.25;1.75;;;;;8.45;58.52;101863.31;5015268;28;45543;-66
2023/01/27 02:53:41;;;;;;;;;2.50;2.50;;;;;8.42;58.23;101861.34;5015322;28;45553;-67
2023/01/27 02:56:06;;;;;;;;;6.75;1.75;;;;;8.44;58.39;101861.47;5015598;28;45532;-66
2023/01/27 02:58:32;;;;;;;;;4.00;3.00;;;;;8.45;58.30;101858.91;5015506;28;45403;-66
2023/01/27 03:00:57;;;;;;;;;4.00;2.00;;;;;8.40;58.73;101862.13;5022514;28;45376;-68
2023/01/27 03:03:23;;;;;;;;;2.00;2.00;;;;;8.48;58.46;101860.81;5013660;28;45796;-67
2023/01/27 03:05:50;;;;;;;;;4.25;4.25;;;;;8.43;58.62;101843.66;5014985;28;45330;-65
2023/01/27 03:08:16;;;;;;;;;4.50;3.75;;;;;8.52;58.32;101862.78;5015305;28;45418;-65
2023/01/27 03:10:42;;;;;;;;;2.00;2.00;;;;;8.48;58.43;101851.06;5014132;28;45503;-66
2023/01/27 03:13:07;;;;;;;;;2.75;2.75;;;;;8.46;57.85;101847.44;5015034;28;45570;-67
2023/01/27 03:18:17;;;;;;;;;1.25;1.25;;;;;8.41;58.68;101850.63;5015035;28;45399;-67
2023/01/27 03:20:45;;;;;;;;;2.50;2.50;;;;;8.30;57.83;101821.69;5025746;28;46163;-67
2023/01/27 03:23:11;;;;;;;;;1.50;1.50;;;;;8.30;58.44;101826.09;5018269;28;45391;-67
2023/01/27 03:25:41;;;;;;;;;3.50;1.00;;;;;8.33;58.86;101834.22;5015038;28;45368;-67
2023/01/27 03:28:07;;;;;;;;;4.25;1.75;;;;;8.38;58.26;101851.41;5019892;28;45438;-66
2023/01/27 03:30:33;;;;;;;;;3.75;3.50;;;;;8.30;58.83;101832.34;5022479;28;45537;-68
2023/01/27 03:32:58;;;;;;;;;1.25;1.25;;;;;8.30;58.47;101823.44;5013722;28;45567;-68
2023/01/27 03:35:33;;;;;;;;;4.00;1.00;;;;;8.25;59.03;101808.94;5014840;28;45383;-64
2023/01/27 03:46:14;;;;;;;;;2.75;1.00;;;;;8.40;58.90;101835.50;5022234;28;45291;-67
2023/01/27 03:48:39;;;;;;;;;1.50;1.50;;;;;8.39;58.46;101833.66;5018248;28;45467;-65
2023/01/27 03:51:07;;;;;;;;;2.25;2.00;;;;;8.48;58.85;101843.09;5018132;28;45344;-67
2023/01/27 03:53:36;;;;;;;;;2.00;2.00;;;;;8.47;58.42;101843.91;5019730;28;45375;-66
2023/01/27 03:56:03;;;;;;;;;1.25;1.25;;;;;8.39;58.49;101828.34;5018467;28;45448;-66
2023/01/27 03:58:32;;;;;;;;;9.50;3.75;;;;;8.44;58.41;101838.41;5017243;28;45485;-66
2023/01/27 04:01:12;;;;;;;;;3.25;3.25;;;;;8.44;58.18;101837.50;5016706;28;45774;-65
2023/01/27 04:09:10;;;;;;;;;2.00;2.00;;;;;8.54;58.20;101838.91;5012627;28;45434;-65
2023/01/27 04:11:54;;;;;;;;;2.75;2.75;;;;;8.47;58.15;101832.34;5013860;28;46660;-65
2023/01/27 04:14:22;;;;;;;;;1.50;1.25;;;;;8.54;58.13;101845.13;5010126;28;45379;-67
2023/01/27 04:16:48;;;;;;;;;2.25;1.00;;;;;8.58;59.18;101844.47;5015043;28;45592;-65
2023/01/27 04:19:13;;;;;;;;;4.00;3.00;;;;;8.57;58.91;101839.97;5014523;28;45389;-65
2023/01/27 04:21:39;;;;;;;;;2.50;2.50;;;;;8.58;58.13;101838.22;5013844;28;45395;-68
2023/01/27 04:24:15;;;;;;;;;3.50;3.50;;;;;8.58;58.50;101839.16;5020111;28;45447;-68
2023/01/27 04:26:44;;;;;;;;;4.50;3.00;;;;;8.57;58.63;101839.06;5001239;28;45516;-67
2023/01/27 04:29:11;;;;;;;;;4.00;2.50;;;;;8.51;57.86;101831.66;5007444;28;45483;-66
2023/01/27 04:31:37;;;;;;;;;4.00;3.00;;;;;8.53;58.08;101830.00;5007150;28;46269;-67
2023/01/27 04:34:02;;;;;;;;;4.25;2.75;;;;;8.57;58.63;101831.97;5013873;28;45526;-67
2023/01/27 04:36:27;;;;;;;;;4.00;2.00;;;;;8.59;58.52;101829.41;4996576;28;45429;-64
2023/01/27 04:38:53;;;;;;;;;2.00;2.00;;;;;8.53;58.41;101818.41;5011157;28;45655;-66
2023/01/27 04:41:18;;;;;;;;;1.00;1.00;;;;;8.29;57.83;101771.91;5012690;28;49893;-66
2023/01/27 04:43:43;;;;;;;;;2.00;2.00;;;;;8.61;57.87;101834.00;5014451;28;45343;-63
2023/01/27 04:46:09;;;;;;;;;6.00;4.00;;;;;8.60;57.86;101825.91;5024509;28;45447;-64
2023/01/27 04:48:34;;;;;;;;;4.25;3.50;;;;;8.60;57.22;101826.81;5014339;28;45518;-66
2023/01/27 04:50:59;;;;;;;;;5.00;2.00;;;;;8.65;57.17;101829.72;5016077;28;46602;-67
2023/01/27 04:53:25;;;;;;;;;3.00;1.50;;;;;8.53;58.07;101803.38;5020556;28;45388;-65
2023/01/27 04:55:50;;;;;;;;;4.50;3.00;;;;;8.69;57.28;101822.81;5012156;28;45648;-64
2023/01/27 04:58:16;;;;;;;;;4.50;3.00;;;;;8.70;56.85;101824.66;5015886;28;45596;-66
2023/01/27 05:00:43;;;;;;;;;4.25;2.00;;;;;8.67;56.57;101823.63;5013614;28;45571;-66
2023/01/27 05:03:10;;;;;;;;;4.25;3.00;;;;;8.70;56.75;101811.31;5013406;28;45415;-64
2023/01/27 05:05:37;;;;;;;;;3.75;2.00;;;;;8.67;57.35;101817.41;5013681;28;45343;-65
2023/01/27 05:08:04;;;;;;;;;1.75;1.25;;;;;8.66;57.00;101804.91;5013694;28;45262;-67
2023/01/27 05:10:29;;;;;;;;;2.50;1.50;;;;;8.65;56.37;101811.97;5010248;28;45512;-65
2023/01/27 05:12:54;;;;;;;;;3.00;1.00;;;;;8.66;57.10;101816.50;5013314;28;45355;-65
2023/01/27 05:15:20;;;;;;;;;5.00;2.00;;;;;8.59;57.00;101802.75;5013425;28;45845;-64
2023/01/27 05:17:45;;;;;;;;;4.25;1.25;;;;;8.62;56.60;101806.50;5013751;28;45523;-66
2023/01/27 05:20:11;;;;;;;;;2.25;1.00;;;;;8.58;56.03;101809.84;5011910;28;46468;-67
2023/01/27 05:22:36;;;;;;;;;1.00;1.00;;;;;8.57;57.27;101801.78;5013518;28;45488;-66
2023/01/27 05:25:03;;;;;;;;;2.00;2.00;;;;;8.44;56.10;101785.16;5026304;28;45457;-67
2023/01/27 05:27:29;;;;;;;;;2.50;2.00;;;;;8.57;56.14;101810.69;5012308;28;45451;-66
2023/01/27 05:29:54;;;;;;;;;7.00;3.00;;;;;8.53;56.85;101803.38;5011484;28;46024;-68
2023/01/27 05:32:19;;;;;;;;;5.75;2.00;;;;;8.54;56.26;101798.94;5013469;28;45777;-65
2023/01/27 05:34:45;;;;;;;;;3.00;1.00;;;;;8.61;56.25;101810.00;4978348;28;45322;-66
2023/01/27 05:37:10;;;;;;;;;1.25;1.25;;;;;8.62;56.33;101814.50;5016978;28;45401;-67
2023/01/27 05:39:35;;;;;;;;;4.00;2.00;;;;;8.65;56.10;101813.75;5013693;28;46335;-67
2023/01/27 05:42:01;;;;;;;;;3.50;3.50;;;;;8.69;56.66;101809.47;5016367;28;45421;-67
2023/01/27 05:44:27;;;;;;;;;6.00;3.25;;;;;8.62;56.44;101811.81;5015938;28;45285;-65
2023/01/27 05:46:52;;;;;;;;;1.75;1.00;;;;;8.54;56.01;101797.19;5020300;28;45675;-66
2023/01/27 05:49:18;;;;;;;;;7.25;3.25;;;;;8.58;55.92;101799.19;5015955;28;45396;-64
2023/01/27 05:51:43;;;;;;;;;2.75;1.75;;;;;8.66;56.89;101813.81;5016347;28;45288;-66
2023/01/27 05:54:09;;;;;;;;;2.00;1.25;;;;;8.70;56.54;101825.53;5017849;28;45442;-66
2023/01/27 05:56:34;;;;;;;;;3.25;2.00;;;;;8.65;56.76;101811.97;5016735;28;45314;-66
2023/01/27 05:59:00;;;;;;;;;3.25;2.75;;;;;8.71;56.72;101824.72;5016275;28;45371;-66
2023/01/27 06:01:29;;;;;;;;;2.00;2.00;;;;;8.64;55.71;101812.81;4996725;28;45686;-67
2023/01/27 06:03:54;;;;;;;;;4.00;4.00;;;;;8.66;56.10;101823.53;5015085;28;45434;-68
2023/01/27 06:06:22;;;;;;;;;4.75;4.75;;;;;8.34;55.68;101761.53;5015202;28;45456;-67
2023/01/27 06:08:48;;;;;;;;;2.25;1.00;;;;;8.72;55.70;101823.88;5011015;28;45461;-65
2023/01/27 06:11:16;;;;;;;;;3.75;2.75;;;;;8.65;55.55;101819.06;5016093;28;45407;-66
2023/01/27 06:13:42;;;;;;;;;8.50;6.00;;;;;8.68;56.04;101827.22;4992957;28;45487;-68
2023/01/27 06:16:13;;;;;;;;;7.25;4.25;;;;;8.65;55.88;101811.09;5016396;28;45522;-66
2023/01/27 06:18:39;;;;;;;;;9.25;4.00;;;;;8.75;55.97;101828.44;5018222;28;45631;-67
2023/01/27 06:21:09;;;;;;;;;2.00;2.00;;;;;8.77;55.87;101838.34;5016042;28;45531;-64
2023/01/27 06:23:35;;;;;;;;;4.50;2.25;;;;;8.77;55.98;101832.09;4997160;28;45546;-66
2023/01/27 06:26:09;;;;;;;;;2.75;2.00;;;;;8.79;55.88;101827.75;5015307;28;45561;-68
2023/01/27 06:28:35;;;;;;;;;4.00;2.75;;;;;8.73;55.16;101825.72;5014746;28;47362;-68
2023/01/27 06:31:09;;;;;;;;;5.00;3.00;;;;;8.76;55.25;101833.88;5014270;28;45472;-69
2023/01/27 06:33:34;;;;;;;;;5.75;5.25;;;;;8.76;55.62;101832.94;5014435;28;45769;-66
2023/01/27 06:36:06;;;;;;;;;6.00;6.00;;;;;8.76;55.26;101838.25;5028594;28;45249;-65
2023/01/27 06:38:31;;;;;;;;;6.50;5.00;;;;;8.75;55.60;101836.44;5039479;28;45742;-66
2023/01/27 06:40:57;;;;;;;;;4.50;3.00;;;;;8.67;55.29;101836.03;5012696;28;46143;-67
2023/01/27 06:43:22;;;;;;;;;4.00;3.00;;;;;8.69;55.11;101833.47;5032514;28;45390;-67
2023/01/27 06:45:56;;;;;;;;;5.75;5.00;;;;;8.72;54.87;101844.28;5031498;28;45182;-66
2023/01/27 06:48:21;;;;;;;;;11.50;10.25;;;;;8.76;55.32;101841.84;5025207;28;45406;-65
2023/01/27 06:50:47;;;;;;;;;13.00;12.25;;;;;8.37;55.31;101771.44;5027535;28;45263;-65
2023/01/27 06:53:12;;;;;;;;;20.50;18.50;;;;;8.70;55.43;101832.63;5029361;28;45265;-65
2023/01/27 06:55:40;;;;;;;;;24.75;16.00;;;;;8.62;55.14;101825.16;5031865;28;45073;-66
2023/01/27 06:58:08;;;;;;;;;10.75;9.25;;;;;8.66;55.47;101824.47;5029622;28;45309;-64
2023/01/27 07:00:35;;;;;;;;;5.25;5.00;;;;;8.74;55.47;101840.84;5022673;28;45050;-67
2023/01/27 07:03:00;;;;;;;;;5.50;3.75;;;;;8.73;55.07;101833.69;5016975;28;45463;-65
2023/01/27 07:05:26;;;;;;;;;4.50;3.75;;;;;8.73;55.46;101833.69;5021135;28;45617;-65
2023/01/27 07:07:51;;;;;;;;;5.50;4.75;;;;;8.63;55.74;101818.09;5019694;28;46278;-66
2023/01/27 07:10:17;;;;;;;;;8.75;5.00;;;;;8.74;55.46;101835.50;5031602;28;45005;-65
2023/01/27 07:12:42;;;;;;;;;6.75;5.75;;;;;8.77;56.01;101848.09;5027425;28;45321;-66
2023/01/27 07:15:08;;;;;;;;;21.75;18.25;;;;;8.80;55.50;101849.16;5013619;28;45502;-67
2023/01/27 07:17:34;;;;;;;;;5.25;5.00;;;;;8.79;55.23;101847.34;5011553;28;48391;-68
2023/01/27 07:20:00;;;;;;;;;14.00;10.25;;;;;8.75;55.30;101845.34;4999031;28;45556;-69
2023/01/27 07:22:25;;;;;;;;;44.00;31.50;;;;;8.79;55.90;101849.06;5013269;28;45554;-68
2023/01/27 07:24:51;;;;;;;;;9.75;7.75;;;;;8.82;56.14;101851.91;5009977;28;45482;-66
2023/01/27 07:27:16;;;;;;;;;7.00;5.00;;;;;8.84;55.25;101855.53;5014343;28;45901;-67
2023/01/27 07:29:42;;;;;;;;;10.00;9.00;;;;;8.89;55.43;101853.13;5017780;28;45496;-65
2023/01/27 07:32:07;;;;;;;;;3.75;3.75;;;;;8.87;55.78;101860.13;5016862;28;45391;-68
2023/01/27 07:34:33;;;;;;;;;5.50;3.00;;;;;8.83;55.72;101859.06;5008332;28;45476;-68
2023/01/27 07:36:58;;;;;;;;;9.25;7.50;;;;;8.80;55.63;101849.16;5009277;28;45554;-65
2023/01/27 07:39:25;;;;;;;;;5.75;5.75;;;;;8.88;54.91;101864.66;5013567;28;45510;-64
2023/01/27 07:41:51;;;;;;;;;5.25;5.00;;;;;8.93;55.47;101866.69;4997313;28;45565;-65
2023/01/27 07:44:16;;;;;;;;;5.50;3.50;;;;;8.95;55.14;101866.78;5014031;28;45730;-67
2023/01/27 07:46:42;;;;;;;;;2.00;2.00;;;;;8.96;55.74;101876.56;5011895;28;47164;-68
2023/01/27 07:49:08;;;;;;;;;7.00;7.00;;;;;8.94;55.30;101876.53;5006006;28;45521;-65
2023/01/27 07:51:33;;;;;;;;;5.25;3.00;;;;;8.92;55.14;101883.50;5017783;28;45502;-67
2023/01/27 07:53:59;;;;;;;;;6.25;5.50;;;;;8.93;54.79;101885.34;4995070;28;45158;-66
2023/01/27 07:56:24;;;;;;;;;5.00;4.25;;;;;8.93;55.46;101881.78;5013307;28;46247;-66
2023/01/27 07:58:53;;;;;;;;;9.25;7.00;;;;;8.96;55.70;101887.25;5010269;28;45605;-65
2023/01/27 08:01:19;;;;;;;;;14.00;10.00;;;;;8.87;54.61;101871.69;5018673;28;45535;-66
2023/01/27 08:03:44;;;;;;;;;4.25;3.25;;;;;8.87;54.86;101892.13;5015798;28;45336;-66
2023/01/27 08:06:11;;;;;;;;;11.75;5.25;;;;;8.80;55.36;101874.91;5011976;28;46552;-65
2023/01/27 08:08:37;;;;;;;;;10.75;7.25;;;;;8.86;55.49;101885.88;4990938;28;45569;-65
2023/01/27 08:11:07;;;;;;;;;7.50;5.00;;;;;8.87;55.53;101889.44;5014779;28;45395;-66
2023/01/27 08:13:34;;;;;;;;;8.00;5.00;;;;;8.90;55.50;101887.84;4992451;28;45645;-64
2023/01/27 08:16:01;;;;;;;;;6.25;6.25;;;;;8.86;55.15;101883.22;5011442;28;45282;-66
2023/01/27 08:18:28;;;;;;;;;6.00;4.00;;;;;8.90;54.67;101895.84;5009325;28;45414;-66
2023/01/27 08:20:54;;;;;;;;;9.25;6.00;;;;;8.89;54.80;101891.34;5009923;28;45793;-66
2023/01/27 08:23:22;;;;;;;;;8.25;5.25;;;;;8.89;54.37;101899.34;5013286;28;45531;-68
2023/01/27 08:25:52;;;;;;;;;9.50;6.75;;;;;8.93;54.79;101900.44;5009216;28;45426;-66
2023/01/27 08:28:19;;;;;;;;;8.25;4.25;;;;;8.84;54.33;101882.19;5010132;28;45598;-66
2023/01/27 08:30:45;;;;;;;;;6.25;6.25;;;;;8.91;53.79;101891.41;4990413;28;45617;-67
2023/01/27 08:33:11;;;;;;;;;8.25;4.50;;;;;8.86;54.27;101885.88;4994020;28;45569;-65
2023/01/27 08:35:37;;;;;;;;;6.75;6.00;;;;;8.88;54.93;101901.94;5010059;28;46154;-68
2023/01/27 08:38:04;;;;;;;;;8.25;8.25;;;;;8.77;54.85;101891.63;5012949;28;45537;-67
2023/01/27 08:40:29;;;;;;;;;8.25;6.25;;;;;8.81;54.55;101890.03;5013058;28;45475;-66
2023/01/27 08:42:54;;;;;;;;;16.75;11.00;;;;;8.93;54.24;101906.66;5013453;28;45785;-64
2023/01/27 08:45:20;;;;;;;;;11.75;11.75;;;;;8.90;54.25;101905.59;5012450;28;45268;-68
2023/01/27 08:47:45;;;;;;;;;6.75;6.75;;;;;8.85;54.45;101900.03;5011807;28;45645;-67
2023/01/27 08:50:11;;;;;;;;;8.50;6.50;;;;;8.80;53.19;101934.44;5025184;28;45609;-64
2023/01/27 08:52:36;;;;;;;;;14.00;12.25;;;;;8.77;53.61;101912.94;5011415;28;45496;-65
2023/01/27 08:55:02;;;;;;;;;13.50;12.00;;;;;8.71;54.48;101903.72;5011874;28;46315;-63
2023/01/27 08:57:31;;;;;;;;;8.50;8.00;;;;;8.81;54.41;101914.00;5009568;28;45501;-67
2023/01/27 08:59:56;;;;;;;;;13.75;11.00;;;;;8.77;53.97;101912.03;5001989;28;45574;-66
2023/01/27 09:02:23;;;;;;;;;25.25;20.75;;;;;8.84;54.36;101923.09;5012789;28;45320;-65
2023/01/27 09:04:49;;;;;;;;;37.25;29.00;;;;;8.77;54.14;101914.69;5012929;28;46258;-65
2023/01/27 09:07:15;;;;;;;;;30.75;22.00;;;;;8.86;54.48;101925.84;5021603;28;45497;-66
2023/01/27 09:09:40;;;;;;;;;18.00;13.25;;;;;8.90;54.27;101926.94;5014129;28;45386;-65
2023/01/27 09:12:06;;;;;;;;;24.50;24.00;;;;;8.88;54.33;101925.94;5013720;28;45600;-65
2023/01/27 09:14:32;;;;;;;;;22.50;17.75;;;;;8.92;54.09;101941.25;5019065;28;45723;-68
2023/01/27 09:16:57;;;;;;;;;18.75;14.50;;;;;8.89;53.29;101936.66;5022812;28;45558;-68
2023/01/27 09:19:23;;;;;;;;;16.00;11.00;;;;;8.83;53.86;101934.59;5014179;28;45527;-65
2023/01/27 09:21:48;;;;;;;;;10.00;10.00;;;;;8.82;53.03;101942.50;5014967;28;45511;-65
2023/01/27 09:24:16;;;;;;;;;11.25;11.25;;;;;8.73;52.89;101942.00;5026925;28;46363;-67
2023/01/27 09:26:42;;;;;;;;;15.75;12.75;;;;;8.62;52.73;101930.78;5015553;28;45647;-69
2023/01/27 09:29:08;;;;;;;;;9.50;9.50;;;;;8.57;53.62;101922.56;5015236;28;45471;-67
2023/01/27 09:31:33;;;;;;;;;8.75;8.00;;;;;8.75;53.71;101945.69;5027473;28;45348;-67
2023/01/27 09:33:59;;;;;;;;;7.25;5.50;;;;;8.74;52.76;101941.19;4998231;28;47493;-65
2023/01/27 09:36:26;;;;;;;;;10.25;10.25;;;;;8.57;52.30;101916.31;5014895;28;45473;-64
2023/01/27 09:39:01;;;;;;;;;5.50;5.50;;;;;8.69;52.18;101945.34;5014211;28;45631;-68
2023/01/27 09:41:49;;;;;;;;;11.00;7.25;;;;;8.60;51.86;101954.69;5017470;28;45630;-65
2023/01/27 09:44:32;;;;;;;;;15.50;9.75;;;;;8.61;51.94;101955.59;4999647;28;47306;-69
2023/01/27 09:47:04;;;;;;;;;8.50;6.50;;;;;8.61;52.65;101960.91;5016618;28;45446;-68
2023/01/27 09:49:43;;;;;;;;;11.00;5.50;;;;;8.50;51.76;101957.69;5011825;28;46335;-67
2023/01/27 09:52:23;;;;;;;;;19.75;13.75;;;;;8.40;52.29;101952.66;5015106;28;46206;-67
2023/01/27 09:55:12;;;;;;;;;17.00;8.25;;;;;8.43;52.47;101956.44;5015995;28;45582;-68
2023/01/27 09:57:46;;;;;;;;;5.00;5.00;;;;;8.45;52.83;101962.75;4994871;28;45586;-69
2023/01/27 10:00:17;;;;;;;;;10.25;5.25;;;;;8.47;52.76;101962.84;5015957;28;45586;-65
2023/01/27 10:02:54;;;;;;;;;10.75;6.00;;;;;8.53;52.20;101962.25;5016176;28;45507;-67
2023/01/27 10:05:35;;;;;;;;;13.25;10.75;;;;;8.54;51.93;101966.75;4997842;28;48454;-69
2023/01/27 10:08:30;;;;;;;;;8.75;5.00;;;;;8.54;51.60;101959.69;5014158;28;45630;-67
2023/01/27 10:11:16;;;;;;;;;6.25;6.00;;;;;8.53;52.59;101964.91;5016662;28;45532;-66
2023/01/27 10:13:56;;;;;;;;;12.25;10.00;;;;;8.51;51.66;101962.16;5015378;28;45417;-68
2023/01/27 10:16:50;;;;;;;;;11.75;9.00;;;;;8.53;52.16;101962.25;5015400;28;46413;-68
2023/01/27 10:19:26;;;;;;;;;11.00;10.25;;;;;8.45;52.21;101941.47;5015727;28;45465;-69
2023/01/27 10:22:08;;;;;;;;;11.50;10.25;;;;;8.43;52.79;101937.81;5016146;28;45448;-70
2023/01/27 10:24:48;;;;;;;;;13.25;9.50;;;;;8.61;52.03;101968.91;5018053;28;45396;-68
2023/01/27 10:27:25;;;;;;;;;13.00;10.00;;;;;8.60;51.56;101968.00;4996433;28;47785;-66
2023/01/27 10:29:57;;;;;;;;;10.00;7.00;;;;;8.59;51.74;101966.16;5011758;28;45588;-69
2023/01/27 10:32:27;;;;;;;;;16.00;7.25;;;;;8.61;51.74;101966.25;5015433;28;45464;-69
2023/01/27 10:35:06;;;;;;;;;8.00;7.50;;;;;8.67;51.67;101969.25;5017520;28;45662;-67
2023/01/27 10:37:31;;;;;;;;;5.50;5.25;;;;;8.67;51.59;101964.81;5019456;28;46296;-66
2023/01/27 10:40:14;;;;;;;;;12.25;10.00;;;;;8.66;51.84;101976.34;5022350;28;45347;-71
2023/01/27 10:42:48;;;;;;;;;12.25;12.25;;;;;8.70;52.40;101969.41;5014337;28;45454;-68
2023/01/27 10:45:38;;;;;;;;;15.75;12.00;;;;;8.74;51.92;101967.81;5015997;28;45358;-66
2023/01/27 10:48:26;;;;;;;;;14.25;13.50;;;;;8.71;52.11;101972.97;5014045;28;46440;-66
2023/01/27 10:51:01;;;;;;;;;17.50;15.25;;;;;8.69;51.82;101967.56;5014810;28;45538;-65
2023/01/27 10:54:01;;;;;;;;;14.75;12.75;;;;;8.76;52.06;101974.16;5015517;28;45532;-66
2023/01/27 10:56:48;;;;;;;;;14.25;8.25;;;;;8.75;51.44;101978.56;5028182;28;45359;-65
2023/01/27 10:59:27;;;;;;;;;12.75;9.75;;;;;8.71;52.24;101960.59;5015136;28;46567;-64
2023/01/27 11:01:59;;;;;;;;;16.75;12.75;;;;;8.79;52.43;101972.59;5015118;28;45388;-63
2023/01/27 11:04:28;;;;;;;;;19.50;14.25;;;;;8.78;51.37;101969.84;5015404;28;45455;-66
2023/01/27 11:06:54;;;;;;;;;19.00;14.25;;;;;8.76;51.47;101968.81;5015751;28;45518;-64
2023/01/27 11:09:23;;;;;;;;;17.00;14.50;;;;;8.82;52.25;101971.81;5014400;28;45751;-65
2023/01/27 11:11:51;;;;;;;;;16.75;14.00;;;;;8.81;51.75;101968.25;5014984;28;45482;-69
2023/01/27 11:14:35;;;;;;;;;24.75;22.25;;;;;8.80;51.77;101970.81;5015303;28;45502;-68
2023/01/27 11:17:23;;;;;;;;;20.00;13.75;;;;;8.83;51.87;101968.31;5019309;28;45565;-70
2023/01/27 11:20:22;;;;;;;;;21.00;16.75;;;;;8.83;51.05;101965.66;5015318;28;45674;-68
2023/01/27 11:22:58;;;;;;;;;10.25;8.25;;;;;8.82;51.73;101963.81;5014952;28;45459;-63
2023/01/27 11:25:30;;;;;;;;;19.00;16.00;;;;;8.84;51.65;101963.09;5016791;28;45495;-62
2023/01/27 11:28:24;;;;;;;;;13.50;7.75;;;;;8.81;51.04;101960.25;5015101;28;45596;-69
2023/01/27 11:31:05;;;;;;;;;28.50;20.50;;;;;8.84;51.87;101947.09;5018125;28;45379;-67
2023/01/27 11:34:02;;;;;;;;;15.25;8.75;;;;;8.78;51.34;101932.53;5014793;28;45383;-68
2023/01/27 11:36:28;;;;;;;;;10.50;9.25;;;;;8.81;51.57;101943.31;5012356;28;45387;-70
2023/01/27 11:38:55;;;;;;;;;16.50;9.50;;;;;8.79;51.72;101943.28;5014831;28;45534;-68
2023/01/27 11:41:21;;;;;;;;;12.75;10.50;;;;;8.77;51.92;101936.03;5014341;28;48560;-67
2023/01/27 11:43:46;;;;;;;;;12.00;9.25;;;;;8.81;51.50;101932.66;5013874;28;45459;-65
2023/01/27 11:46:18;;;;;;;;;18.50;16.00;;;;;8.88;51.34;101933.94;5016830;28;45590;-68
2023/01/27 11:48:48;;;;;;;;;24.00;20.25;;;;;8.75;51.56;101919.03;5019674;28;45570;-69
2023/01/27 11:51:20;;;;;;;;;24.25;22.00;;;;;8.92;51.59;101933.25;5014002;28;46326;-66
2023/01/27 11:53:50;;;;;;;;;9.00;8.75;;;;;8.94;52.13;101935.16;5014193;28;45433;-69
2023/01/27 11:56:18;;;;;;;;;14.50;10.00;;;;;8.94;51.02;101932.50;5014309;28;45546;-69
2023/01/27 11:58:55;;;;;;;;;15.75;11.00;;;;;8.89;51.58;101933.97;5014288;28;45576;-70
2023/01/27 12:01:28;;;;;;;;;19.75;12.00;;;;;8.91;51.22;101935.00;5014333;28;45525;-65
2023/01/27 12:04:04;;;;;;;;;11.25;10.00;;;;;8.88;51.79;101941.94;5013513;28;45494;-69